sensor_id;sensor_type;location;lat;lon;timestamp;temperature;humidity
55173;DHT22;41061;52.822;6.860;2022-12-11T00:01:59;-0.20;99.90
55173;DHT22;41061;52.822;6.860;2022-12-11T00:04:25;-0.20;99.90
55173;DHT22;41061;52.822;6.860;2022-12-11T00:06:52;-0.20;99.90
55173;DHT22;41061;52.822;6.860;2022-12-11T00:09:18;-0.20;99.90
55173;DHT22;41061;52.822;6.860;2022-12-11T00:11:45;-0.20;99.90
55173;DHT22;41061;52.822;6.860;2022-12-11T00:14:12;-0.20;99.90
55173;DHT22;41061;52.822;6.860;2022-12-11T00:16:38;-0.10;99.90
55173;DHT22;41061;52.822;6.860;2022-12-11T00:19:04;-0.20;99.90
55173;DHT22;41061;52.822;6.860;2022-12-11T00:21:30;-0.20;99.90
55173;DHT22;41061;52.822;6.860;2022-12-11T00:23:56;-0.20;99.90
55173;DHT22;41061;52.822;6.860;2022-12-11T00:26:22;-0.20;99.90
55173;DHT22;41061;52.822;6.860;2022-12-11T00:28:51;-0.20;99.90
55173;DHT22;41061;52.822;6.860;2022-12-11T00:31:19;-0.20;99.90
55173;DHT22;41061;52.822;6.860;2022-12-11T00:33:46;-0.20;99.90
55173;DHT22;41061;52.822;6.860;2022-12-11T00:36:19;-0.20;99.90
55173;DHT22;41061;52.822;6.860;2022-12-11T00:38:46;-0.10;99.90
55173;DHT22;41061;52.822;6.860;2022-12-11T00:41:12;-0.10;99.90
55173;DHT22;41061;52.822;6.860;2022-12-11T00:43:38;-0.20;99.90
55173;DHT22;41061;52.822;6.860;2022-12-11T00:46:04;-0.20;99.90
55173;DHT22;41061;52.822;6.860;2022-12-11T00:48:30;-0.10;99.90
55173;DHT22;41061;52.822;6.860;2022-12-11T00:50:56;-0.10;99.90
55173;DHT22;41061;52.822;6.860;2022-12-11T00:53:22;-0.10;99.90
55173;DHT22;41061;52.822;6.860;2022-12-11T00:55:47;-0.10;99.90
55173;DHT22;41061;52.822;6.860;2022-12-11T00:58:13;-0.10;99.90
55173;DHT22;41061;52.822;6.860;2022-12-11T01:00:40;0.00;99.90
55173;DHT22;41061;52.822;6.860;2022-12-11T01:03:06;0.00;99.90
55173;DHT22;41061;52.822;6.860;2022-12-11T01:05:33;0.00;99.90
55173;DHT22;41061;52.822;6.860;2022-12-11T01:07:59;0.00;99.90
55173;DHT22;41061;52.822;6.860;2022-12-11T01:10:25;-0.10;99.90
55173;DHT22;41061;52.822;6.860;2022-12-11T01:12:55;0.00;99.90
55173;DHT22;41061;52.822;6.860;2022-12-11T01:15:22;0.00;99.90
55173;DHT22;41061;52.822;6.860;2022-12-11T01:17:49;0.00;99.90
55173;DHT22;41061;52.822;6.860;2022-12-11T01:20:18;0.00;99.90
55173;DHT22;41061;52.822;6.860;2022-12-11T01:22:44;0.00;99.90
55173;DHT22;41061;52.822;6.860;2022-12-11T01:25:10;0.10;99.90
55173;DHT22;41061;52.822;6.860;2022-12-11T01:27:37;0.10;99.90
55173;DHT22;41061;52.822;6.860;2022-12-11T01:30:04;0.10;99.90
55173;DHT22;41061;52.822;6.860;2022-12-11T01:32:32;0.10;99.90
55173;DHT22;41061;52.822;6.860;2022-12-11T01:34:58;0.10;99.90
55173;DHT22;41061;52.822;6.860;2022-12-11T01:37:23;0.10;99.90
55173;DHT22;41061;52.822;6.860;2022-12-11T01:39:49;0.10;99.90
55173;DHT22;41061;52.822;6.860;2022-12-11T01:42:19;0.10;99.90
55173;DHT22;41061;52.822;6.860;2022-12-11T01:47:11;0.10;99.90
55173;DHT22;41061;52.822;6.860;2022-12-11T01:49:38;0.10;99.90
55173;DHT22;41061;52.822;6.860;2022-12-11T01:52:08;0.10;99.90
55173;DHT22;41061;52.822;6.860;2022-12-11T01:54:34;0.10;99.90
55173;DHT22;41061;52.822;6.860;2022-12-11T01:57:02;0.10;99.90
55173;DHT22;41061;52.822;6.860;2022-12-11T01:59:30;0.20;99.90
55173;DHT22;41061;52.822;6.860;2022-12-11T02:02:09;0.20;99.90
55173;DHT22;41061;52.822;6.860;2022-12-11T02:04:38;0.20;99.90
55173;DHT22;41061;52.822;6.860;2022-12-11T02:07:04;0.20;99.90
55173;DHT22;41061;52.822;6.860;2022-12-11T02:09:33;0.20;99.90
55173;DHT22;41061;52.822;6.860;2022-12-11T02:12:23;0.20;99.90
55173;DHT22;41061;52.822;6.860;2022-12-11T02:15:07;0.20;99.90
55173;DHT22;41061;52.822;6.860;2022-12-11T02:18:02;0.20;99.90
55173;DHT22;41061;52.822;6.860;2022-12-11T02:23:50;0.30;99.90
55173;DHT22;41061;52.822;6.860;2022-12-11T02:29:15;0.30;99.90
55173;DHT22;41061;52.822;6.860;2022-12-11T02:32:03;0.30;99.90
55173;DHT22;41061;52.822;6.860;2022-12-11T02:37:02;0.30;99.90
55173;DHT22;41061;52.822;6.860;2022-12-11T02:39:28;0.30;99.90
55173;DHT22;41061;52.822;6.860;2022-12-11T02:41:55;0.30;99.90
55173;DHT22;41061;52.822;6.860;2022-12-11T02:44:25;0.30;99.90
55173;DHT22;41061;52.822;6.860;2022-12-11T02:46:52;0.30;99.90
55173;DHT22;41061;52.822;6.860;2022-12-11T02:49:20;0.30;99.90
55173;DHT22;41061;52.822;6.860;2022-12-11T02:51:48;0.30;99.90
55173;DHT22;41061;52.822;6.860;2022-12-11T02:54:20;0.30;99.90
55173;DHT22;41061;52.822;6.860;2022-12-11T02:57:07;0.40;99.90
55173;DHT22;41061;52.822;6.860;2022-12-11T02:59:37;0.40;99.90
55173;DHT22;41061;52.822;6.860;2022-12-11T03:02:03;0.40;99.90
55173;DHT22;41061;52.822;6.860;2022-12-11T03:04:30;0.40;99.90
55173;DHT22;41061;52.822;6.860;2022-12-11T03:07:00;0.40;99.90
55173;DHT22;41061;52.822;6.860;2022-12-11T03:09:27;0.40;99.90
55173;DHT22;41061;52.822;6.860;2022-12-11T03:11:53;0.40;99.90
55173;DHT22;41061;52.822;6.860;2022-12-11T03:14:19;0.40;99.90
55173;DHT22;41061;52.822;6.860;2022-12-11T03:16:59;0.40;99.90
55173;DHT22;41061;52.822;6.860;2022-12-11T03:22:15;0.30;99.90
55173;DHT22;41061;52.822;6.860;2022-12-11T03:25:01;0.40;99.90
55173;DHT22;41061;52.822;6.860;2022-12-11T03:30:16;0.30;99.90
55173;DHT22;41061;52.822;6.860;2022-12-11T03:32:48;0.30;99.90
55173;DHT22;41061;52.822;6.860;2022-12-11T03:35:36;0.40;99.90
55173;DHT22;41061;52.822;6.860;2022-12-11T03:38:07;0.40;99.90
55173;DHT22;41061;52.822;6.860;2022-12-11T03:40:35;0.40;99.90
55173;DHT22;41061;52.822;6.860;2022-12-11T03:43:04;0.40;99.90
55173;DHT22;41061;52.822;6.860;2022-12-11T03:45:31;0.40;99.90
55173;DHT22;41061;52.822;6.860;2022-12-11T03:47:58;0.40;99.90
55173;DHT22;41061;52.822;6.860;2022-12-11T03:50:26;0.40;99.90
55173;DHT22;41061;52.822;6.860;2022-12-11T03:52:53;0.40;99.90
55173;DHT22;41061;52.822;6.860;2022-12-11T03:55:21;0.40;99.90
55173;DHT22;41061;52.822;6.860;2022-12-11T03:57:47;0.40;99.90
55173;DHT22;41061;52.822;6.860;2022-12-11T04:00:16;0.40;99.90
55173;DHT22;41061;52.822;6.860;2022-12-11T04:02:43;0.40;99.90
55173;DHT22;41061;52.822;6.860;2022-12-11T04:05:10;0.40;99.90
55173;DHT22;41061;52.822;6.860;2022-12-11T04:07:36;0.40;99.90
55173;DHT22;41061;52.822;6.860;2022-12-11T04:10:02;0.40;99.90
55173;DHT22;41061;52.822;6.860;2022-12-11T04:12:28;0.40;99.90
55173;DHT22;41061;52.822;6.860;2022-12-11T04:14:54;0.40;99.90
55173;DHT22;41061;52.822;6.860;2022-12-11T04:17:30;0.40;99.90
55173;DHT22;41061;52.822;6.860;2022-12-11T04:20:15;0.40;99.90
55173;DHT22;41061;52.822;6.860;2022-12-11T04:23:02;0.40;99.90
55173;DHT22;41061;52.822;6.860;2022-12-11T04:25:50;0.40;99.90
55173;DHT22;41061;52.822;6.860;2022-12-11T04:28:16;0.40;99.90
55173;DHT22;41061;52.822;6.860;2022-12-11T04:30:48;0.40;99.90
55173;DHT22;41061;52.822;6.860;2022-12-11T04:33:14;0.40;99.90
55173;DHT22;41061;52.822;6.860;2022-12-11T04:35:39;0.40;99.90
55173;DHT22;41061;52.822;6.860;2022-12-11T04:38:05;0.50;99.90
55173;DHT22;41061;52.822;6.860;2022-12-11T04:40:31;0.50;99.90
55173;DHT22;41061;52.822;6.860;2022-12-11T04:42:56;0.50;99.90
55173;DHT22;41061;52.822;6.860;2022-12-11T04:45:22;0.50;99.90
55173;DHT22;41061;52.822;6.860;2022-12-11T04:47:48;0.50;99.90
55173;DHT22;41061;52.822;6.860;2022-12-11T04:50:14;0.50;99.90
55173;DHT22;41061;52.822;6.860;2022-12-11T04:52:41;0.50;99.90
55173;DHT22;41061;52.822;6.860;2022-12-11T04:55:07;0.50;99.90
55173;DHT22;41061;52.822;6.860;2022-12-11T04:57:33;0.50;99.90
55173;DHT22;41061;52.822;6.860;2022-12-11T04:59:59;0.50;99.90
55173;DHT22;41061;52.822;6.860;2022-12-11T05:02:25;0.50;99.90
55173;DHT22;41061;52.822;6.860;2022-12-11T05:04:51;0.50;99.90
55173;DHT22;41061;52.822;6.860;2022-12-11T05:07:17;0.50;99.90
55173;DHT22;41061;52.822;6.860;2022-12-11T05:09:43;0.50;99.90
55173;DHT22;41061;52.822;6.860;2022-12-11T05:12:09;0.50;99.90
55173;DHT22;41061;52.822;6.860;2022-12-11T05:14:34;0.50;99.90
55173;DHT22;41061;52.822;6.860;2022-12-11T05:17:00;0.60;99.90
55173;DHT22;41061;52.822;6.860;2022-12-11T05:19:26;0.60;99.90
55173;DHT22;41061;52.822;6.860;2022-12-11T05:21:52;0.60;99.90
55173;DHT22;41061;52.822;6.860;2022-12-11T05:24:18;0.60;99.90
55173;DHT22;41061;52.822;6.860;2022-12-11T05:26:43;0.60;99.90
55173;DHT22;41061;52.822;6.860;2022-12-11T05:29:09;0.60;99.90
55173;DHT22;41061;52.822;6.860;2022-12-11T05:31:35;0.50;99.90
55173;DHT22;41061;52.822;6.860;2022-12-11T05:34:00;0.60;99.90
55173;DHT22;41061;52.822;6.860;2022-12-11T05:36:29;0.60;99.90
55173;DHT22;41061;52.822;6.860;2022-12-11T05:38:57;0.60;99.90
55173;DHT22;41061;52.822;6.860;2022-12-11T05:41:25;0.60;99.90
55173;DHT22;41061;52.822;6.860;2022-12-11T05:43:51;0.50;99.90
55173;DHT22;41061;52.822;6.860;2022-12-11T05:46:20;0.50;99.90
55173;DHT22;41061;52.822;6.860;2022-12-11T05:48:48;0.50;99.90
55173;DHT22;41061;52.822;6.860;2022-12-11T05:51:15;0.50;99.90
55173;DHT22;41061;52.822;6.860;2022-12-11T05:53:42;0.50;99.90
55173;DHT22;41061;52.822;6.860;2022-12-11T05:56:11;0.50;99.90
55173;DHT22;41061;52.822;6.860;2022-12-11T05:58:38;0.60;99.90
55173;DHT22;41061;52.822;6.860;2022-12-11T06:01:18;0.60;99.90
55173;DHT22;41061;52.822;6.860;2022-12-11T06:03:44;0.50;99.90
55173;DHT22;41061;52.822;6.860;2022-12-11T06:06:10;0.50;99.90
55173;DHT22;41061;52.822;6.860;2022-12-11T06:08:36;0.60;99.90
55173;DHT22;41061;52.822;6.860;2022-12-11T06:11:02;0.60;99.90
55173;DHT22;41061;52.822;6.860;2022-12-11T06:13:28;0.60;99.90
55173;DHT22;41061;52.822;6.860;2022-12-11T06:15:54;0.60;99.90
55173;DHT22;41061;52.822;6.860;2022-12-11T06:18:20;0.60;99.90
55173;DHT22;41061;52.822;6.860;2022-12-11T06:20:45;0.60;99.90
55173;DHT22;41061;52.822;6.860;2022-12-11T06:23:11;0.50;99.90
55173;DHT22;41061;52.822;6.860;2022-12-11T06:25:38;0.50;99.90
55173;DHT22;41061;52.822;6.860;2022-12-11T06:28:04;0.50;99.90
55173;DHT22;41061;52.822;6.860;2022-12-11T06:30:30;0.50;99.90
55173;DHT22;41061;52.822;6.860;2022-12-11T06:32:57;0.60;99.90
55173;DHT22;41061;52.822;6.860;2022-12-11T06:35:23;0.50;99.90
55173;DHT22;41061;52.822;6.860;2022-12-11T06:37:49;0.50;99.90
55173;DHT22;41061;52.822;6.860;2022-12-11T06:40:15;0.50;99.90
55173;DHT22;41061;52.822;6.860;2022-12-11T06:42:41;0.60;99.90
55173;DHT22;41061;52.822;6.860;2022-12-11T06:45:07;0.60;99.90
55173;DHT22;41061;52.822;6.860;2022-12-11T06:47:33;0.60;99.90
55173;DHT22;41061;52.822;6.860;2022-12-11T06:49:59;0.60;99.90
55173;DHT22;41061;52.822;6.860;2022-12-11T06:52:25;0.60;99.90
55173;DHT22;41061;52.822;6.860;2022-12-11T06:54:54;0.60;99.90
55173;DHT22;41061;52.822;6.860;2022-12-11T06:57:21;0.60;99.90
55173;DHT22;41061;52.822;6.860;2022-12-11T06:59:47;0.50;99.90
55173;DHT22;41061;52.822;6.860;2022-12-11T07:02:15;0.60;99.90
55173;DHT22;41061;52.822;6.860;2022-12-11T07:04:41;0.60;99.90
55173;DHT22;41061;52.822;6.860;2022-12-11T07:07:08;0.60;99.90
55173;DHT22;41061;52.822;6.860;2022-12-11T07:09:33;0.60;99.90
55173;DHT22;41061;52.822;6.860;2022-12-11T07:11:59;0.60;99.90
55173;DHT22;41061;52.822;6.860;2022-12-11T07:14:25;0.60;99.90
55173;DHT22;41061;52.822;6.860;2022-12-11T07:16:51;0.60;99.90
55173;DHT22;41061;52.822;6.860;2022-12-11T07:19:17;0.50;99.90
55173;DHT22;41061;52.822;6.860;2022-12-11T07:21:42;0.60;99.90
55173;DHT22;41061;52.822;6.860;2022-12-11T07:24:08;0.60;99.90
55173;DHT22;41061;52.822;6.860;2022-12-11T07:26:34;0.50;99.90
55173;DHT22;41061;52.822;6.860;2022-12-11T07:29:00;0.60;99.90
55173;DHT22;41061;52.822;6.860;2022-12-11T07:31:29;0.60;99.90
55173;DHT22;41061;52.822;6.860;2022-12-11T07:34:00;0.60;99.90
55173;DHT22;41061;52.822;6.860;2022-12-11T07:36:27;0.60;99.90
55173;DHT22;41061;52.822;6.860;2022-12-11T07:38:53;0.50;99.90
55173;DHT22;41061;52.822;6.860;2022-12-11T07:41:20;0.60;99.90
55173;DHT22;41061;52.822;6.860;2022-12-11T07:43:46;0.60;99.90
55173;DHT22;41061;52.822;6.860;2022-12-11T07:46:15;0.60;99.90
55173;DHT22;41061;52.822;6.860;2022-12-11T07:48:42;0.60;99.90
55173;DHT22;41061;52.822;6.860;2022-12-11T07:51:12;0.60;99.90
55173;DHT22;41061;52.822;6.860;2022-12-11T07:53:43;0.60;99.90
55173;DHT22;41061;52.822;6.860;2022-12-11T07:56:09;0.60;99.90
55173;DHT22;41061;52.822;6.860;2022-12-11T07:58:35;0.60;99.90
55173;DHT22;41061;52.822;6.860;2022-12-11T08:01:01;0.60;99.90
55173;DHT22;41061;52.822;6.860;2022-12-11T08:03:27;0.60;99.90
55173;DHT22;41061;52.822;6.860;2022-12-11T08:05:52;0.60;99.90
55173;DHT22;41061;52.822;6.860;2022-12-11T08:08:19;0.60;99.90
55173;DHT22;41061;52.822;6.860;2022-12-11T08:10:45;0.70;99.90
55173;DHT22;41061;52.822;6.860;2022-12-11T08:13:10;0.70;99.90
55173;DHT22;41061;52.822;6.860;2022-12-11T08:15:36;0.70;99.90
55173;DHT22;41061;52.822;6.860;2022-12-11T08:18:03;0.70;99.90
55173;DHT22;41061;52.822;6.860;2022-12-11T08:20:28;0.70;99.90
55173;DHT22;41061;52.822;6.860;2022-12-11T08:22:55;0.70;99.90
55173;DHT22;41061;52.822;6.860;2022-12-11T08:25:22;0.70;99.90
55173;DHT22;41061;52.822;6.860;2022-12-11T08:27:48;0.70;99.90
55173;DHT22;41061;52.822;6.860;2022-12-11T08:30:14;0.70;99.90
55173;DHT22;41061;52.822;6.860;2022-12-11T08:32:40;0.70;99.90
55173;DHT22;41061;52.822;6.860;2022-12-11T08:35:06;0.70;99.90
55173;DHT22;41061;52.822;6.860;2022-12-11T08:37:33;0.70;99.90
55173;DHT22;41061;52.822;6.860;2022-12-11T08:39:59;0.70;99.90
55173;DHT22;41061;52.822;6.860;2022-12-11T08:42:24;0.70;99.90
55173;DHT22;41061;52.822;6.860;2022-12-11T08:44:50;0.70;99.90
55173;DHT22;41061;52.822;6.860;2022-12-11T08:47:16;0.70;99.90
55173;DHT22;41061;52.822;6.860;2022-12-11T08:49:42;0.70;99.90
55173;DHT22;41061;52.822;6.860;2022-12-11T08:52:08;0.70;99.90
55173;DHT22;41061;52.822;6.860;2022-12-11T08:54:36;0.70;99.90
55173;DHT22;41061;52.822;6.860;2022-12-11T08:57:02;0.80;99.90
55173;DHT22;41061;52.822;6.860;2022-12-11T08:59:27;0.70;99.90
55173;DHT22;41061;52.822;6.860;2022-12-11T09:01:54;0.70;99.90
55173;DHT22;41061;52.822;6.860;2022-12-11T09:04:20;0.70;99.90
55173;DHT22;41061;52.822;6.860;2022-12-11T09:06:46;0.70;99.90
55173;DHT22;41061;52.822;6.860;2022-12-11T09:09:12;0.70;99.90
55173;DHT22;41061;52.822;6.860;2022-12-11T09:11:37;0.70;99.90
55173;DHT22;41061;52.822;6.860;2022-12-11T09:14:04;0.70;99.90
55173;DHT22;41061;52.822;6.860;2022-12-11T09:16:29;0.70;99.90
55173;DHT22;41061;52.822;6.860;2022-12-11T09:18:57;0.70;99.90
55173;DHT22;41061;52.822;6.860;2022-12-11T09:21:26;0.70;99.90
55173;DHT22;41061;52.822;6.860;2022-12-11T09:23:54;0.70;99.90
55173;DHT22;41061;52.822;6.860;2022-12-11T09:26:20;0.70;99.90
55173;DHT22;41061;52.822;6.860;2022-12-11T09:28:46;0.70;99.90
55173;DHT22;41061;52.822;6.860;2022-12-11T09:31:18;0.70;99.90
55173;DHT22;41061;52.822;6.860;2022-12-11T09:33:45;0.70;99.90
55173;DHT22;41061;52.822;6.860;2022-12-11T09:36:11;0.80;99.90
55173;DHT22;41061;52.822;6.860;2022-12-11T09:38:37;0.80;99.90
55173;DHT22;41061;52.822;6.860;2022-12-11T09:41:36;0.80;99.90
55173;DHT22;41061;52.822;6.860;2022-12-11T09:46:44;0.80;99.90
55173;DHT22;41061;52.822;6.860;2022-12-11T09:49:22;0.80;99.90
55173;DHT22;41061;52.822;6.860;2022-12-11T09:51:57;0.80;99.90
55173;DHT22;41061;52.822;6.860;2022-12-11T09:54:25;0.80;99.90
55173;DHT22;41061;52.822;6.860;2022-12-11T09:57:05;0.80;99.90
55173;DHT22;41061;52.822;6.860;2022-12-11T09:59:44;0.80;99.90
55173;DHT22;41061;52.822;6.860;2022-12-11T10:02:56;0.80;99.90
55173;DHT22;41061;52.822;6.860;2022-12-11T10:05:37;0.80;99.90
55173;DHT22;41061;52.822;6.860;2022-12-11T10:08:41;0.80;99.90
55173;DHT22;41061;52.822;6.860;2022-12-11T10:14:12;0.90;99.90
55173;DHT22;41061;52.822;6.860;2022-12-11T10:16:45;0.90;99.90
55173;DHT22;41061;52.822;6.860;2022-12-11T10:19:29;0.90;99.90
55173;DHT22;41061;52.822;6.860;2022-12-11T10:21:55;0.90;99.90
55173;DHT22;41061;52.822;6.860;2022-12-11T10:24:33;0.90;99.90
55173;DHT22;41061;52.822;6.860;2022-12-11T10:27:13;0.80;99.90
55173;DHT22;41061;52.822;6.860;2022-12-11T10:29:39;0.90;99.90
55173;DHT22;41061;52.822;6.860;2022-12-11T10:32:10;0.90;99.90
55173;DHT22;41061;52.822;6.860;2022-12-11T10:34:41;0.90;99.90
55173;DHT22;41061;52.822;6.860;2022-12-11T10:37:08;0.90;99.90
55173;DHT22;41061;52.822;6.860;2022-12-11T10:39:34;0.90;99.90
55173;DHT22;41061;52.822;6.860;2022-12-11T10:42:01;0.90;99.90
55173;DHT22;41061;52.822;6.860;2022-12-11T10:44:36;0.90;99.90
55173;DHT22;41061;52.822;6.860;2022-12-11T10:47:12;0.90;99.90
55173;DHT22;41061;52.822;6.860;2022-12-11T10:49:52;0.90;99.90
55173;DHT22;41061;52.822;6.860;2022-12-11T10:52:37;1.00;99.90
55173;DHT22;41061;52.822;6.860;2022-12-11T10:57:42;1.00;99.90
55173;DHT22;41061;52.822;6.860;2022-12-11T11:00:32;1.00;99.90
55173;DHT22;41061;52.822;6.860;2022-12-11T11:03:00;1.00;99.90
55173;DHT22;41061;52.822;6.860;2022-12-11T11:05:36;1.00;99.90
55173;DHT22;41061;52.822;6.860;2022-12-11T11:08:22;1.00;99.90
55173;DHT22;41061;52.822;6.860;2022-12-11T11:10:52;1.00;99.90
55173;DHT22;41061;52.822;6.860;2022-12-11T11:13:20;1.00;99.90
55173;DHT22;41061;52.822;6.860;2022-12-11T11:15:47;1.00;99.90
55173;DHT22;41061;52.822;6.860;2022-12-11T11:18:32;1.00;99.90
55173;DHT22;41061;52.822;6.860;2022-12-11T11:20:59;1.00;99.90
55173;DHT22;41061;52.822;6.860;2022-12-11T11:23:26;1.00;99.90
55173;DHT22;41061;52.822;6.860;2022-12-11T11:25:58;0.90;99.90
55173;DHT22;41061;52.822;6.860;2022-12-11T11:28:25;1.00;99.90
55173;DHT22;41061;52.822;6.860;2022-12-11T11:33:26;1.00;99.90
55173;DHT22;41061;52.822;6.860;2022-12-11T11:36:04;1.00;99.90
55173;DHT22;41061;52.822;6.860;2022-12-11T11:38:43;1.00;99.90
55173;DHT22;41061;52.822;6.860;2022-12-11T11:41:24;1.00;99.90
55173;DHT22;41061;52.822;6.860;2022-12-11T11:44:15;1.00;99.90
55173;DHT22;41061;52.822;6.860;2022-12-11T11:46:48;1.00;99.90
55173;DHT22;41061;52.822;6.860;2022-12-11T11:52:50;1.10;99.90
55173;DHT22;41061;52.822;6.860;2022-12-11T11:55:27;1.00;99.90
55173;DHT22;41061;52.822;6.860;2022-12-11T11:58:14;1.00;99.90
55173;DHT22;41061;52.822;6.860;2022-12-11T12:00:42;1.10;99.90
55173;DHT22;41061;52.822;6.860;2022-12-11T12:03:21;1.10;99.90
55173;DHT22;41061;52.822;6.860;2022-12-11T12:08:29;1.10;99.90
55173;DHT22;41061;52.822;6.860;2022-12-11T12:14:15;1.10;99.90
55173;DHT22;41061;52.822;6.860;2022-12-11T12:16:57;1.10;99.90
55173;DHT22;41061;52.822;6.860;2022-12-11T12:19:50;1.10;99.90
55173;DHT22;41061;52.822;6.860;2022-12-11T12:22:50;1.10;99.90
55173;DHT22;41061;52.822;6.860;2022-12-11T12:28:01;1.10;99.90
55173;DHT22;41061;52.822;6.860;2022-12-11T12:39:19;1.10;99.90
55173;DHT22;41061;52.822;6.860;2022-12-11T12:44:22;1.20;99.90
55173;DHT22;41061;52.822;6.860;2022-12-11T12:49:42;1.10;99.90
55173;DHT22;41061;52.822;6.860;2022-12-11T12:52:28;1.10;99.90
55173;DHT22;41061;52.822;6.860;2022-12-11T12:54:57;1.20;99.90
55173;DHT22;41061;52.822;6.860;2022-12-11T13:00:39;1.10;99.90
55173;DHT22;41061;52.822;6.860;2022-12-11T13:03:21;1.20;99.90
55173;DHT22;41061;52.822;6.860;2022-12-11T13:06:02;1.20;99.90
55173;DHT22;41061;52.822;6.860;2022-12-11T13:08:33;1.10;99.90
55173;DHT22;41061;52.822;6.860;2022-12-11T13:11:09;1.20;99.90
55173;DHT22;41061;52.822;6.860;2022-12-11T13:13:38;1.20;99.90
55173;DHT22;41061;52.822;6.860;2022-12-11T13:16:37;1.20;99.90
55173;DHT22;41061;52.822;6.860;2022-12-11T13:24:29;1.20;99.90
55173;DHT22;41061;52.822;6.860;2022-12-11T13:26:56;1.20;99.90
55173;DHT22;41061;52.822;6.860;2022-12-11T13:29:38;1.20;99.90
55173;DHT22;41061;52.822;6.860;2022-12-11T13:34:45;1.20;99.90
55173;DHT22;41061;52.822;6.860;2022-12-11T13:40:06;1.20;99.90
55173;DHT22;41061;52.822;6.860;2022-12-11T13:42:43;1.20;99.90
55173;DHT22;41061;52.822;6.860;2022-12-11T13:45:44;1.20;99.90
55173;DHT22;41061;52.822;6.860;2022-12-11T13:48:37;1.20;99.90
55173;DHT22;41061;52.822;6.860;2022-12-11T13:51:04;1.20;99.90
55173;DHT22;41061;52.822;6.860;2022-12-11T13:53:31;1.20;99.90
55173;DHT22;41061;52.822;6.860;2022-12-11T13:56:02;1.10;99.90
55173;DHT22;41061;52.822;6.860;2022-12-11T13:58:32;1.20;99.90
55173;DHT22;41061;52.822;6.860;2022-12-11T14:01:23;1.20;99.90
55173;DHT22;41061;52.822;6.860;2022-12-11T14:06:23;1.20;99.90
55173;DHT22;41061;52.822;6.860;2022-12-11T14:08:52;1.20;99.90
55173;DHT22;41061;52.822;6.860;2022-12-11T14:11:45;1.10;99.90
55173;DHT22;41061;52.822;6.860;2022-12-11T14:14:39;1.20;99.90
55173;DHT22;41061;52.822;6.860;2022-12-11T14:17:08;1.20;99.90
55173;DHT22;41061;52.822;6.860;2022-12-11T14:19:35;1.20;99.90
55173;DHT22;41061;52.822;6.860;2022-12-11T14:22:03;1.20;99.90
55173;DHT22;41061;52.822;6.860;2022-12-11T14:24:30;1.20;99.90
55173;DHT22;41061;52.822;6.860;2022-12-11T14:26:56;1.10;99.90
55173;DHT22;41061;52.822;6.860;2022-12-11T14:29:32;1.20;99.90
55173;DHT22;41061;52.822;6.860;2022-12-11T14:32:01;1.20;99.90
55173;DHT22;41061;52.822;6.860;2022-12-11T14:34:32;1.20;99.90
55173;DHT22;41061;52.822;6.860;2022-12-11T14:37:02;1.20;99.90
55173;DHT22;41061;52.822;6.860;2022-12-11T14:39:40;1.20;99.90
55173;DHT22;41061;52.822;6.860;2022-12-11T14:42:13;1.20;99.90
55173;DHT22;41061;52.822;6.860;2022-12-11T14:44:57;1.20;99.90
55173;DHT22;41061;52.822;6.860;2022-12-11T14:47:31;1.20;99.90
55173;DHT22;41061;52.822;6.860;2022-12-11T14:50:26;1.20;99.90
55173;DHT22;41061;52.822;6.860;2022-12-11T14:53:01;1.20;99.90
55173;DHT22;41061;52.822;6.860;2022-12-11T14:55:33;1.20;99.90
55173;DHT22;41061;52.822;6.860;2022-12-11T14:58:05;1.20;99.90
55173;DHT22;41061;52.822;6.860;2022-12-11T15:00:36;1.20;99.90
55173;DHT22;41061;52.822;6.860;2022-12-11T15:05:51;1.20;99.90
55173;DHT22;41061;52.822;6.860;2022-12-11T15:08:20;1.20;99.90
55173;DHT22;41061;52.822;6.860;2022-12-11T15:13:27;1.10;99.90
55173;DHT22;41061;52.822;6.860;2022-12-11T15:15:54;1.20;99.90
55173;DHT22;41061;52.822;6.860;2022-12-11T15:18:23;1.10;99.90
55173;DHT22;41061;52.822;6.860;2022-12-11T15:20:53;1.10;99.90
55173;DHT22;41061;52.822;6.860;2022-12-11T15:23:20;1.10;99.90
55173;DHT22;41061;52.822;6.860;2022-12-11T15:25:54;1.20;99.90
55173;DHT22;41061;52.822;6.860;2022-12-11T15:28:27;1.20;99.90
55173;DHT22;41061;52.822;6.860;2022-12-11T15:30:56;1.20;99.90
55173;DHT22;41061;52.822;6.860;2022-12-11T15:33:22;1.20;99.90
55173;DHT22;41061;52.822;6.860;2022-12-11T15:36:00;1.20;99.90
55173;DHT22;41061;52.822;6.860;2022-12-11T15:40:56;1.20;99.90
55173;DHT22;41061;52.822;6.860;2022-12-11T15:43:22;1.10;99.90
55173;DHT22;41061;52.822;6.860;2022-12-11T15:45:48;1.20;99.90
55173;DHT22;41061;52.822;6.860;2022-12-11T15:48:14;1.10;99.90
55173;DHT22;41061;52.822;6.860;2022-12-11T15:50:40;1.10;99.90
55173;DHT22;41061;52.822;6.860;2022-12-11T15:53:06;1.10;99.90
55173;DHT22;41061;52.822;6.860;2022-12-11T15:55:31;1.10;99.90
55173;DHT22;41061;52.822;6.860;2022-12-11T15:58:04;1.10;99.90
55173;DHT22;41061;52.822;6.860;2022-12-11T16:00:32;1.10;99.90
55173;DHT22;41061;52.822;6.860;2022-12-11T16:02:58;1.10;99.90
55173;DHT22;41061;52.822;6.860;2022-12-11T16:05:24;1.10;99.90
55173;DHT22;41061;52.822;6.860;2022-12-11T16:07:50;1.10;99.90
55173;DHT22;41061;52.822;6.860;2022-12-11T16:10:19;1.10;99.90
55173;DHT22;41061;52.822;6.860;2022-12-11T16:12:45;1.10;99.90
55173;DHT22;41061;52.822;6.860;2022-12-11T16:15:11;1.10;99.90
55173;DHT22;41061;52.822;6.860;2022-12-11T16:17:38;1.00;99.90
55173;DHT22;41061;52.822;6.860;2022-12-11T16:20:05;1.00;99.90
55173;DHT22;41061;52.822;6.860;2022-12-11T16:22:31;1.00;99.90
55173;DHT22;41061;52.822;6.860;2022-12-11T16:24:56;1.00;99.90
55173;DHT22;41061;52.822;6.860;2022-12-11T16:27:22;1.00;99.90
55173;DHT22;41061;52.822;6.860;2022-12-11T16:29:48;1.00;99.90
55173;DHT22;41061;52.822;6.860;2022-12-11T16:32:14;1.10;99.90
55173;DHT22;41061;52.822;6.860;2022-12-11T16:34:40;1.10;99.90
55173;DHT22;41061;52.822;6.860;2022-12-11T16:37:07;1.00;99.90
55173;DHT22;41061;52.822;6.860;2022-12-11T16:39:33;1.00;99.90
55173;DHT22;41061;52.822;6.860;2022-12-11T16:41:59;1.00;99.90
55173;DHT22;41061;52.822;6.860;2022-12-11T16:44:25;1.00;99.90
55173;DHT22;41061;52.822;6.860;2022-12-11T16:46:52;1.00;99.90
55173;DHT22;41061;52.822;6.860;2022-12-11T16:49:19;1.00;99.90
55173;DHT22;41061;52.822;6.860;2022-12-11T16:51:45;1.00;99.90
55173;DHT22;41061;52.822;6.860;2022-12-11T16:54:11;1.00;99.90
55173;DHT22;41061;52.822;6.860;2022-12-11T16:56:37;1.00;99.90
55173;DHT22;41061;52.822;6.860;2022-12-11T16:59:04;1.00;99.90
55173;DHT22;41061;52.822;6.860;2022-12-11T17:01:29;1.00;99.90
55173;DHT22;41061;52.822;6.860;2022-12-11T17:03:55;1.00;99.90
55173;DHT22;41061;52.822;6.860;2022-12-11T17:06:25;1.00;99.90
55173;DHT22;41061;52.822;6.860;2022-12-11T17:08:51;1.00;99.90
55173;DHT22;41061;52.822;6.860;2022-12-11T17:11:19;1.00;99.90
55173;DHT22;41061;52.822;6.860;2022-12-11T17:13:46;1.00;99.90
55173;DHT22;41061;52.822;6.860;2022-12-11T17:16:14;1.00;99.90
55173;DHT22;41061;52.822;6.860;2022-12-11T17:18:41;1.00;99.90
55173;DHT22;41061;52.822;6.860;2022-12-11T17:21:09;1.00;99.90